sensor_id;sensor_type;location;lat;lon;timestamp;pressure;altitude;pressure_sealevel;temperature;humidity
47883;BME280;37739;50.350;7.578;2022-09-29T00:00:43;98222.69;;;8.76;85.11
47883;BME280;37739;50.350;7.578;2022-09-29T00:03:11;98218.38;;;8.73;85.41
47883;BME280;37739;50.350;7.578;2022-09-29T00:05:36;98214.13;;;8.75;85.16
47883;BME280;37739;50.350;7.578;2022-09-29T00:08:04;98209.88;;;8.74;84.95
47883;BME280;37739;50.350;7.578;2022-09-29T00:10:32;98220.09;;;8.74;85.14
47883;BME280;37739;50.350;7.578;2022-09-29T00:12:57;98219.22;;;8.72;84.84
47883;BME280;37739;50.350;7.578;2022-09-29T00:15:23;98226.00;;;8.72;85.25
47883;BME280;37739;50.350;7.578;2022-09-29T00:17:48;98224.28;;;8.71;85.05
47883;BME280;37739;50.350;7.578;2022-09-29T00:20:16;98231.03;;;8.67;85.17
47883;BME280;37739;50.350;7.578;2022-09-29T00:22:43;98219.94;;;8.65;85.40
47883;BME280;37739;50.350;7.578;2022-09-29T00:25:08;98216.44;;;8.61;85.36
47883;BME280;37739;50.350;7.578;2022-09-29T00:27:34;98220.63;;;8.58;84.99
47883;BME280;37739;50.350;7.578;2022-09-29T00:30:01;98218.91;;;8.57;85.49
47883;BME280;37739;50.350;7.578;2022-09-29T00:32:27;98218.03;;;8.55;85.31
47883;BME280;37739;50.350;7.578;2022-09-29T00:34:52;98218.81;;;8.52;85.25
47883;BME280;37739;50.350;7.578;2022-09-29T00:37:17;98215.44;;;8.53;85.65
47883;BME280;37739;50.350;7.578;2022-09-29T00:39:45;98224.81;;;8.54;85.62
47883;BME280;37739;50.350;7.578;2022-09-29T00:42:17;98216.25;;;8.51;85.36
47883;BME280;37739;50.350;7.578;2022-09-29T00:45:10;98214.44;;;8.45;85.41
47883;BME280;37739;50.350;7.578;2022-09-29T00:47:42;98220.41;;;8.45;85.71
47883;BME280;37739;50.350;7.578;2022-09-29T00:50:18;98222.06;;;8.43;85.62
47883;BME280;37739;50.350;7.578;2022-09-29T00:52:59;98217.69;;;8.41;85.68
47883;BME280;37739;50.350;7.578;2022-09-29T00:55:27;98222.88;;;8.42;85.44
47883;BME280;37739;50.350;7.578;2022-09-29T00:58:02;98207.47;;;8.39;85.52
47883;BME280;37739;50.350;7.578;2022-09-29T01:00:30;98210.81;;;8.35;85.55
47883;BME280;37739;50.350;7.578;2022-09-29T01:03:00;98213.31;;;8.34;85.83
47883;BME280;37739;50.350;7.578;2022-09-29T01:05:32;98214.00;;;8.26;85.61
47883;BME280;37739;50.350;7.578;2022-09-29T01:08:11;98211.34;;;8.20;86.15
47883;BME280;37739;50.350;7.578;2022-09-29T01:10:40;98215.59;;;8.20;86.01
47883;BME280;37739;50.350;7.578;2022-09-29T01:13:07;98210.41;;;8.17;86.20
47883;BME280;37739;50.350;7.578;2022-09-29T01:15:33;98206.06;;;8.13;85.54
47883;BME280;37739;50.350;7.578;2022-09-29T01:17:59;98207.78;;;8.12;85.87
47883;BME280;37739;50.350;7.578;2022-09-29T01:20:28;98207.63;;;8.06;85.72
47883;BME280;37739;50.350;7.578;2022-09-29T01:29:11;98206.41;;;7.89;86.53
47883;BME280;37739;50.350;7.578;2022-09-29T01:32:12;98210.56;;;7.83;87.25
47883;BME280;37739;50.350;7.578;2022-09-29T01:34:52;98207.09;;;7.81;87.37
47883;BME280;37739;50.350;7.578;2022-09-29T01:37:41;98207.97;;;7.82;87.40
47883;BME280;37739;50.350;7.578;2022-09-29T01:40:15;98213.88;;;7.81;87.66
47883;BME280;37739;50.350;7.578;2022-09-29T01:47:58;98220.59;;;7.76;87.48
47883;BME280;37739;50.350;7.578;2022-09-29T01:50:38;98221.38;;;7.73;87.40
47883;BME280;37739;50.350;7.578;2022-09-29T01:53:12;98216.22;;;7.70;87.43
47883;BME280;37739;50.350;7.578;2022-09-29T01:55:44;98218.78;;;7.72;87.35
47883;BME280;37739;50.350;7.578;2022-09-29T01:58:15;98221.31;;;7.70;87.54
47883;BME280;37739;50.350;7.578;2022-09-29T02:00:49;98219.66;;;7.72;87.47
47883;BME280;37739;50.350;7.578;2022-09-29T02:05:49;98218.75;;;7.70;87.23
47883;BME280;37739;50.350;7.578;2022-09-29T02:10:53;98217.59;;;7.57;87.40
47883;BME280;37739;50.350;7.578;2022-09-29T02:13:23;98217.56;;;7.56;88.27
47883;BME280;37739;50.350;7.578;2022-09-29T02:15:51;98220.13;;;7.56;88.20
47883;BME280;37739;50.350;7.578;2022-09-29T02:18:23;98217.59;;;7.57;87.87
47883;BME280;37739;50.350;7.578;2022-09-29T02:20:50;98218.53;;;7.61;88.06
47883;BME280;37739;50.350;7.578;2022-09-29T02:23:16;98222.72;;;7.57;87.90
47883;BME280;37739;50.350;7.578;2022-09-29T02:25:43;98232.81;;;7.53;87.66
47883;BME280;37739;50.350;7.578;2022-09-29T02:28:11;98234.47;;;7.52;88.38
47883;BME280;37739;50.350;7.578;2022-09-29T02:30:37;98229.25;;;7.46;87.75
47883;BME280;37739;50.350;7.578;2022-09-29T02:33:03;98230.09;;;7.45;88.54
47883;BME280;37739;50.350;7.578;2022-09-29T02:35:39;98226.63;;;7.43;88.82
47883;BME280;37739;50.350;7.578;2022-09-29T02:38:20;98227.41;;;7.40;88.58
47883;BME280;37739;50.350;7.578;2022-09-29T02:40:56;98219.78;;;7.42;88.78
47883;BME280;37739;50.350;7.578;2022-09-29T02:43:34;98225.78;;;7.44;88.29
47883;BME280;37739;50.350;7.578;2022-09-29T02:46:37;98227.53;;;7.45;88.40
47883;BME280;37739;50.350;7.578;2022-09-29T02:51:49;98226.47;;;7.37;88.38
47883;BME280;37739;50.350;7.578;2022-09-29T02:57:11;98224.78;;;7.37;88.45
47883;BME280;37739;50.350;7.578;2022-09-29T02:59:54;98226.44;;;7.35;88.60
47883;BME280;37739;50.350;7.578;2022-09-29T03:02:26;98222.94;;;7.32;88.71
47883;BME280;37739;50.350;7.578;2022-09-29T03:04:51;98231.38;;;7.29;88.91
47883;BME280;37739;50.350;7.578;2022-09-29T03:07:20;98230.53;;;7.28;88.63
47883;BME280;37739;50.350;7.578;2022-09-29T03:09:48;98233.97;;;7.31;88.55
47883;BME280;37739;50.350;7.578;2022-09-29T03:12:16;98233.06;;;7.28;88.57
47883;BME280;37739;50.350;7.578;2022-09-29T03:14:44;98238.09;;;7.25;88.82
47883;BME280;37739;50.350;7.578;2022-09-29T03:17:10;98235.44;;;7.21;88.90
47883;BME280;37739;50.350;7.578;2022-09-29T03:19:35;98235.44;;;7.21;89.13
47883;BME280;37739;50.350;7.578;2022-09-29T03:22:00;98229.53;;;7.22;88.98
47883;BME280;37739;50.350;7.578;2022-09-29T03:24:32;98231.13;;;7.18;88.51
47883;BME280;37739;50.350;7.578;2022-09-29T03:26:58;98236.13;;;7.15;88.91
47883;BME280;37739;50.350;7.578;2022-09-29T03:29:23;98238.63;;;7.14;89.01
47883;BME280;37739;50.350;7.578;2022-09-29T03:31:48;98232.72;;;7.15;88.88
47883;BME280;37739;50.350;7.578;2022-09-29T03:34:16;98234.44;;;7.14;89.23
47883;BME280;37739;50.350;7.578;2022-09-29T03:36:41;98236.19;;;7.17;89.37
47883;BME280;37739;50.350;7.578;2022-09-29T03:39:09;98242.06;;;7.14;89.08
47883;BME280;37739;50.350;7.578;2022-09-29T03:41:34;98235.97;;;7.09;89.72
47883;BME280;37739;50.350;7.578;2022-09-29T03:44:02;98236.03;;;7.11;89.70
47883;BME280;37739;50.350;7.578;2022-09-29T03:46:27;98244.63;;;7.14;89.27
47883;BME280;37739;50.350;7.578;2022-09-29T03:48:53;98243.88;;;7.18;89.30
47883;BME280;37739;50.350;7.578;2022-09-29T03:51:20;98253.28;;;7.21;89.35
47883;BME280;37739;50.350;7.578;2022-09-29T03:53:46;98249.03;;;7.20;89.16
47883;BME280;37739;50.350;7.578;2022-09-29T03:56:11;98249.78;;;7.17;89.21
47883;BME280;37739;50.350;7.578;2022-09-29T03:58:36;98249.03;;;7.20;89.13
47883;BME280;37739;50.350;7.578;2022-09-29T04:01:02;98243.69;;;7.11;88.85
47883;BME280;37739;50.350;7.578;2022-09-29T04:03:27;98254.63;;;7.06;89.51
47883;BME280;37739;50.350;7.578;2022-09-29T04:05:55;98252.03;;;7.05;90.00
47883;BME280;37739;50.350;7.578;2022-09-29T04:08:21;98254.66;;;7.08;89.42
47883;BME280;37739;50.350;7.578;2022-09-29T04:10:46;98264.03;;;7.09;89.83
47883;BME280;37739;50.350;7.578;2022-09-29T04:13:12;98257.19;;;7.08;89.09
47883;BME280;37739;50.350;7.578;2022-09-29T04:15:37;98259.75;;;7.08;89.19
47883;BME280;37739;50.350;7.578;2022-09-29T04:18:05;98258.84;;;7.06;89.58
47883;BME280;37739;50.350;7.578;2022-09-29T04:20:33;98259.78;;;7.10;89.58
47883;BME280;37739;50.350;7.578;2022-09-29T04:22:58;98261.59;;;7.12;89.43
47883;BME280;37739;50.350;7.578;2022-09-29T04:25:25;98265.84;;;7.13;89.49
47883;BME280;37739;50.350;7.578;2022-09-29T04:27:51;98261.41;;;7.06;89.46
47883;BME280;37739;50.350;7.578;2022-09-29T04:30:17;98265.63;;;7.05;89.82
47883;BME280;37739;50.350;7.578;2022-09-29T04:32:42;98272.53;;;7.10;89.61
47883;BME280;37739;50.350;7.578;2022-09-29T04:35:10;98271.69;;;7.09;89.54
47883;BME280;37739;50.350;7.578;2022-09-29T04:37:35;98270.00;;;7.10;89.32
47883;BME280;37739;50.350;7.578;2022-09-29T04:40:02;98278.34;;;7.04;89.91
47883;BME280;37739;50.350;7.578;2022-09-29T04:42:28;98273.41;;;7.10;90.28
47883;BME280;37739;50.350;7.578;2022-09-29T04:44:53;98273.44;;;7.12;90.11
47883;BME280;37739;50.350;7.578;2022-09-29T04:47:18;98270.13;;;7.14;89.72
47883;BME280;37739;50.350;7.578;2022-09-29T04:49:43;98267.53;;;7.13;89.64
47883;BME280;37739;50.350;7.578;2022-09-29T04:52:14;98270.84;;;7.10;89.41
47883;BME280;37739;50.350;7.578;2022-09-29T04:54:40;98275.94;;;7.10;89.62
47883;BME280;37739;50.350;7.578;2022-09-29T04:57:06;98274.28;;;7.11;89.47
47883;BME280;37739;50.350;7.578;2022-09-29T04:59:32;98276.88;;;7.12;89.28
47883;BME280;37739;50.350;7.578;2022-09-29T05:02:02;98280.13;;;7.06;89.27
47883;BME280;37739;50.350;7.578;2022-09-29T05:04:30;98273.28;;;7.05;89.29
47883;BME280;37739;50.350;7.578;2022-09-29T05:06:55;98280.16;;;7.08;89.45
47883;BME280;37739;50.350;7.578;2022-09-29T05:09:25;98273.28;;;7.05;89.05
47883;BME280;37739;50.350;7.578;2022-09-29T05:11:53;98279.28;;;7.07;89.40
47883;BME280;37739;50.350;7.578;2022-09-29T05:14:18;98283.59;;;7.10;89.31
47883;BME280;37739;50.350;7.578;2022-09-29T05:16:46;98285.22;;;7.06;88.94
47883;BME280;37739;50.350;7.578;2022-09-29T05:19:11;98285.94;;;7.01;89.08
47883;BME280;37739;50.350;7.578;2022-09-29T05:21:37;98288.53;;;7.04;89.59
47883;BME280;37739;50.350;7.578;2022-09-29T05:24:04;98292.75;;;7.02;89.22
47883;BME280;37739;50.350;7.578;2022-09-29T05:26:30;98297.03;;;7.03;89.43
47883;BME280;37739;50.350;7.578;2022-09-29T05:29:00;98289.44;;;7.04;89.73
47883;BME280;37739;50.350;7.578;2022-09-29T05:31:30;98291.09;;;7.04;89.57
47883;BME280;37739;50.350;7.578;2022-09-29T05:33:55;98290.59;;;7.17;88.44
47883;BME280;37739;50.350;7.578;2022-09-29T05:36:21;98294.78;;;7.15;88.45
47883;BME280;37739;50.350;7.578;2022-09-29T05:38:49;98298.19;;;7.14;88.68
47883;BME280;37739;50.350;7.578;2022-09-29T05:41:15;98297.78;;;7.00;89.29
47883;BME280;37739;50.350;7.578;2022-09-29T05:43:47;98304.69;;;7.03;89.12
47883;BME280;37739;50.350;7.578;2022-09-29T05:46:17;98302.25;;;7.07;89.58
47883;BME280;37739;50.350;7.578;2022-09-29T05:48:42;98307.38;;;7.09;89.15
47883;BME280;37739;50.350;7.578;2022-09-29T05:51:10;98307.34;;;7.07;88.85
47883;BME280;37739;50.350;7.578;2022-09-29T05:53:36;98314.09;;;7.05;89.10
47883;BME280;37739;50.350;7.578;2022-09-29T05:56:06;98310.72;;;7.06;89.30
47883;BME280;37739;50.350;7.578;2022-09-29T05:58:35;98313.19;;;7.03;89.64
47883;BME280;37739;50.350;7.578;2022-09-29T06:01:05;98318.34;;;7.05;89.46
47883;BME280;37739;50.350;7.578;2022-09-29T06:03:32;98312.22;;;7.00;88.93
47883;BME280;37739;50.350;7.578;2022-09-29T06:06:04;98318.38;;;7.06;89.61
47883;BME280;37739;50.350;7.578;2022-09-29T06:08:32;98321.78;;;7.07;89.00
47883;BME280;37739;50.350;7.578;2022-09-29T06:11:08;98318.38;;;7.06;88.94
47883;BME280;37739;50.350;7.578;2022-09-29T06:13:41;98315.78;;;7.05;89.42
47883;BME280;37739;50.350;7.578;2022-09-29T06:16:09;98318.50;;;7.11;89.29
47883;BME280;37739;50.350;7.578;2022-09-29T06:18:35;98315.13;;;7.12;89.24
47883;BME280;37739;50.350;7.578;2022-09-29T06:23:38;98317.69;;;7.12;88.67
47883;BME280;37739;50.350;7.578;2022-09-29T06:26:08;98321.91;;;7.12;88.55
47883;BME280;37739;50.350;7.578;2022-09-29T06:28:34;98325.34;;;7.14;88.76
47883;BME280;37739;50.350;7.578;2022-09-29T06:31:04;98322.00;;;7.15;88.63
47883;BME280;37739;50.350;7.578;2022-09-29T06:33:33;98327.09;;;7.15;88.66
47883;BME280;37739;50.350;7.578;2022-09-29T06:36:02;98327.09;;;7.15;88.37
47883;BME280;37739;50.350;7.578;2022-09-29T06:38:53;98326.16;;;7.11;88.79
47883;BME280;37739;50.350;7.578;2022-09-29T06:41:18;98329.59;;;7.13;89.45
47883;BME280;37739;50.350;7.578;2022-09-29T06:43:47;98328.81;;;7.16;89.08
47883;BME280;37739;50.350;7.578;2022-09-29T06:46:12;98328.03;;;7.18;88.81
47883;BME280;37739;50.350;7.578;2022-09-29T06:48:37;98334.00;;;7.19;89.07
47883;BME280;37739;50.350;7.578;2022-09-29T06:51:07;98329.75;;;7.19;88.94
47883;BME280;37739;50.350;7.578;2022-09-29T06:53:32;98338.28;;;7.20;88.98
47883;BME280;37739;50.350;7.578;2022-09-29T06:55:58;98336.72;;;7.25;89.53
47883;BME280;37739;50.350;7.578;2022-09-29T06:58:27;98336.81;;;7.28;89.04
47883;BME280;37739;50.350;7.578;2022-09-29T07:00:53;98342.66;;;7.24;88.93
47883;BME280;37739;50.350;7.578;2022-09-29T07:03:19;98348.56;;;7.23;89.19
47883;BME280;37739;50.350;7.578;2022-09-29T07:05:44;98346.91;;;7.25;88.68
47883;BME280;37739;50.350;7.578;2022-09-29T07:08:12;98337.56;;;7.25;88.58
47883;BME280;37739;50.350;7.578;2022-09-29T07:10:37;98337.56;;;7.24;88.59
47883;BME280;37739;50.350;7.578;2022-09-29T07:13:06;98350.31;;;7.25;88.62
47883;BME280;37739;50.350;7.578;2022-09-29T07:15:34;98344.50;;;7.30;88.59
47883;BME280;37739;50.350;7.578;2022-09-29T07:18:00;98343.81;;;7.35;88.75
47883;BME280;37739;50.350;7.578;2022-09-29T07:20:28;98347.22;;;7.36;88.17
47883;BME280;37739;50.350;7.578;2022-09-29T07:22:57;98349.75;;;7.36;87.65
47883;BME280;37739;50.350;7.578;2022-09-29T07:25:25;98351.91;;;7.20;88.29
47883;BME280;37739;50.350;7.578;2022-09-29T07:27:50;98352.88;;;7.25;87.86
47883;BME280;37739;50.350;7.578;2022-09-29T07:30:17;98357.28;;;7.31;88.23
47883;BME280;37739;50.350;7.578;2022-09-29T07:32:42;98351.38;;;7.32;87.98
47883;BME280;37739;50.350;7.578;2022-09-29T07:35:08;98356.34;;;7.27;88.12
47883;BME280;37739;50.350;7.578;2022-09-29T07:37:33;98366.56;;;7.29;88.69
47883;BME280;37739;50.350;7.578;2022-09-29T07:40:01;98366.63;;;7.31;88.55
47883;BME280;37739;50.350;7.578;2022-09-29T07:42:29;98361.66;;;7.35;88.66
47883;BME280;37739;50.350;7.578;2022-09-29T07:44:55;98365.28;;;7.43;88.90
47883;BME280;37739;50.350;7.578;2022-09-29T07:47:20;98373.03;;;7.48;88.23
47883;BME280;37739;50.350;7.578;2022-09-29T07:49:46;98367.28;;;7.55;88.55
47883;BME280;37739;50.350;7.578;2022-09-29T07:52:12;98371.53;;;7.56;87.87
47883;BME280;37739;50.350;7.578;2022-09-29T07:54:38;98374.06;;;7.55;88.05
47883;BME280;37739;50.350;7.578;2022-09-29T07:57:05;98374.88;;;7.54;88.05
47883;BME280;37739;50.350;7.578;2022-09-29T07:59:31;98368.97;;;7.56;88.40
47883;BME280;37739;50.350;7.578;2022-09-29T08:01:56;98379.38;;;7.62;87.96
47883;BME280;37739;50.350;7.578;2022-09-29T08:04:22;98388.78;;;7.65;87.29
47883;BME280;37739;50.350;7.578;2022-09-29T08:06:47;98384.63;;;7.69;87.51
47883;BME280;37739;50.350;7.578;2022-09-29T08:09:17;98389.75;;;7.69;87.11
47883;BME280;37739;50.350;7.578;2022-09-29T08:11:45;98391.63;;;7.76;87.58
47883;BME280;37739;50.350;7.578;2022-09-29T08:14:10;98395.03;;;7.76;86.97
47883;BME280;37739;50.350;7.578;2022-09-29T08:16:36;98402.03;;;7.83;87.31
47883;BME280;37739;50.350;7.578;2022-09-29T08:19:04;98407.16;;;7.83;86.81
47883;BME280;37739;50.350;7.578;2022-09-29T08:21:30;98404.50;;;7.80;87.79
47883;BME280;37739;50.350;7.578;2022-09-29T08:24:00;98403.72;;;7.83;87.70
47883;BME280;37739;50.350;7.578;2022-09-29T08:26:26;98407.34;;;7.91;87.52
47883;BME280;37739;50.350;7.578;2022-09-29T08:28:55;98408.25;;;7.93;87.23
47883;BME280;37739;50.350;7.578;2022-09-29T08:31:20;98408.44;;;8.02;87.09
47883;BME280;37739;50.350;7.578;2022-09-29T08:33:50;98407.53;;;7.99;87.03
47883;BME280;37739;50.350;7.578;2022-09-29T08:36:17;98417.81;;;8.02;86.69
47883;BME280;37739;50.350;7.578;2022-09-29T08:38:47;98415.38;;;8.06;86.91
47883;BME280;37739;50.350;7.578;2022-09-29T08:41:32;98429.31;;;8.19;87.03
47883;BME280;37739;50.350;7.578;2022-09-29T08:44:21;98424.50;;;8.32;86.79
47883;BME280;37739;50.350;7.578;2022-09-29T08:47:38;98429.06;;;8.43;86.70
47883;BME280;37739;50.350;7.578;2022-09-29T08:49:47;98433.72;;;8.61;86.50
47883;BME280;37739;50.350;7.578;2022-09-29T08:52:25;98424.78;;;8.80;86.12
47883;BME280;37739;50.350;7.578;2022-09-29T08:55:20;98429.66;;;9.09;84.81
47883;BME280;37739;50.350;7.578;2022-09-29T08:57:57;98434.13;;;9.19;84.09
47883;BME280;37739;50.350;7.578;2022-09-29T09:00:33;98434.09;;;9.16;83.29
47883;BME280;37739;50.350;7.578;2022-09-29T09:11:23;98430.78;;;9.23;82.71
47883;BME280;37739;50.350;7.578;2022-09-29T09:14:29;98434.09;;;9.16;84.05
47883;BME280;37739;50.350;7.578;2022-09-29T09:22:45;98430.00;;;9.72;81.80
47883;BME280;37739;50.350;7.578;2022-09-29T09:25:32;98428.47;;;9.80;82.79
47883;BME280;37739;50.350;7.578;2022-09-29T09:28:19;98420.09;;;9.90;83.75
47883;BME280;37739;50.350;7.578;2022-09-29T09:31:03;98429.72;;;10.03;82.91
47883;BME280;37739;50.350;7.578;2022-09-29T09:33:42;98428.41;;;10.27;81.27
47883;BME280;37739;50.350;7.578;2022-09-29T09:36:16;98418.28;;;10.32;82.42
47883;BME280;37739;50.350;7.578;2022-09-29T09:41:21;98424.94;;;10.78;79.73
47883;BME280;37739;50.350;7.578;2022-09-29T09:44:00;98423.16;;;10.73;79.16
47883;BME280;37739;50.350;7.578;2022-09-29T09:46:59;98425.75;;;10.74;79.32
47883;BME280;37739;50.350;7.578;2022-09-29T09:49:56;98419.75;;;10.75;78.34
47883;BME280;37739;50.350;7.578;2022-09-29T09:52:28;98424.31;;;10.95;78.42
47883;BME280;37739;50.350;7.578;2022-09-29T09:54:58;98425.19;;;10.97;79.20
47883;BME280;37739;50.350;7.578;2022-09-29T10:03:23;98425.06;;;11.55;76.84
47883;BME280;37739;50.350;7.578;2022-09-29T10:05:51;98425.19;;;11.69;76.63
47883;BME280;37739;50.350;7.578;2022-09-29T10:08:23;98423.38;;;11.57;75.22
47883;BME280;37739;50.350;7.578;2022-09-29T10:10:52;98422.81;;;11.89;76.20
47883;BME280;37739;50.350;7.578;2022-09-29T10:13:24;98428.09;;;12.03;74.31
47883;BME280;37739;50.350;7.578;2022-09-29T10:18:29;98422.41;;;12.39;74.57
47883;BME280;37739;50.350;7.578;2022-09-29T10:20:56;98428.53;;;12.52;73.63
47883;BME280;37739;50.350;7.578;2022-09-29T10:23:27;98430.16;;;12.37;72.57
47883;BME280;37739;50.350;7.578;2022-09-29T10:31:33;98430.25;;;12.53;72.70
47883;BME280;37739;50.350;7.578;2022-09-29T10:34:20;98433.66;;;12.47;73.52
47883;BME280;37739;50.350;7.578;2022-09-29T10:39:43;98427.19;;;13.19;71.02
47883;BME280;37739;50.350;7.578;2022-09-29T10:42:22;98423.94;;;13.53;68.66
47883;BME280;37739;50.350;7.578;2022-09-29T10:44:54;98429.03;;;13.44;70.03
47883;BME280;37739;50.350;7.578;2022-09-29T10:47:27;98426.47;;;13.44;69.62
47883;BME280;37739;50.350;7.578;2022-09-29T10:52:34;98430.03;;;14.14;69.01
47883;BME280;37739;50.350;7.578;2022-09-29T10:55:01;98423.19;;;14.27;67.26
47883;BME280;37739;50.350;7.578;2022-09-29T10:57:31;98427.47;;;14.29;68.26
47883;BME280;37739;50.350;7.578;2022-09-29T11:00:01;98425.75;;;14.42;67.29
47883;BME280;37739;50.350;7.578;2022-09-29T11:02:36;98432.63;;;14.39;66.81
47883;BME280;37739;50.350;7.578;2022-09-29T11:05:15;98426.63;;;14.32;65.09
47883;BME280;37739;50.350;7.578;2022-09-29T11:07:43;98430.91;;;14.50;66.34
47883;BME280;37739;50.350;7.578;2022-09-29T11:10:29;98434.38;;;14.47;65.66
47883;BME280;37739;50.350;7.578;2022-09-29T11:12:55;98424.03;;;14.53;65.51
47883;BME280;37739;50.350;7.578;2022-09-29T11:15:26;98430.06;;;14.69;65.89
47883;BME280;37739;50.350;7.578;2022-09-29T11:17:55;98428.28;;;14.96;65.07
47883;BME280;37739;50.350;7.578;2022-09-29T11:20:25;98427.44;;;14.96;63.17
47883;BME280;37739;50.350;7.578;2022-09-29T11:23:12;98427.47;;;14.77;64.69
47883;BME280;37739;50.350;7.578;2022-09-29T11:28:33;98426.63;;;14.64;64.38
47883;BME280;37739;50.350;7.578;2022-09-29T11:36:53;98431.66;;;15.18;61.46
47883;BME280;37739;50.350;7.578;2022-09-29T11:45:00;98436.84;;;15.17;61.71
47883;BME280;37739;50.350;7.578;2022-09-29T11:50:30;98427.75;;;16.08;58.07
47883;BME280;37739;50.350;7.578;2022-09-29T11:53:18;98431.38;;;15.83;60.43
47883;BME280;37739;50.350;7.578;2022-09-29T11:56:06;98430.34;;;16.10;55.10
47883;BME280;37739;50.350;7.578;2022-09-29T11:59:34;98427.38;;;16.53;54.78
47883;BME280;37739;50.350;7.578;2022-09-29T12:02:22;98429.97;;;16.56;52.36
47883;BME280;37739;50.350;7.578;2022-09-29T12:15:38;98425.00;;;16.30;53.60
47883;BME280;37739;50.350;7.578;2022-09-29T12:18:14;98423.59;;;16.94;54.29
47883;BME280;37739;50.350;7.578;2022-09-29T12:20:45;98419.63;;;17.38;53.22
47883;BME280;37739;50.350;7.578;2022-09-29T12:23:15;98426.13;;;16.97;53.89
47883;BME280;37739;50.350;7.578;2022-09-29T12:25:50;98424.38;;;16.99;50.70
47883;BME280;37739;50.350;7.578;2022-09-29T12:28:24;98413.31;;;17.58;51.59
47883;BME280;37739;50.350;7.578;2022-09-29T12:31:00;98420.59;;;17.96;50.98
47883;BME280;37739;50.350;7.578;2022-09-29T12:45:00;98419.50;;;18.62;49.06
47883;BME280;37739;50.350;7.578;2022-09-29T12:50:21;98424.69;;;18.62;47.86
47883;BME280;37739;50.350;7.578;2022-09-29T12:56:02;98426.69;;;18.98;43.62
47883;BME280;37739;50.350;7.578;2022-09-29T12:58:43;98421.78;;;18.30;46.00
47883;BME280;37739;50.350;7.578;2022-09-29T13:14:52;98419.56;;;18.05;48.26
47883;BME280;37739;50.350;7.578;2022-09-29T13:20:23;98422.31;;;17.29;49.57
47883;BME280;37739;50.350;7.578;2022-09-29T13:23:08;98425.09;;;17.15;49.27
47883;BME280;37739;50.350;7.578;2022-09-29T13:28:31;98424.44;;;16.95;49.43
47883;BME280;37739;50.350;7.578;2022-09-29T13:31:04;98428.13;;;16.69;49.75
47883;BME280;37739;50.350;7.578;2022-09-29T13:33:31;98433.25;;;16.74;50.74
47883;BME280;37739;50.350;7.578;2022-09-29T13:35:57;98428.06;;;16.75;51.12
47883;BME280;37739;50.350;7.578;2022-09-29T13:38:25;98438.50;;;16.67;51.09
47883;BME280;37739;50.350;7.578;2022-09-29T13:41:15;98434.22;;;16.60;50.29
47883;BME280;37739;50.350;7.578;2022-09-29T13:51:56;98425.94;;;17.14;49.75
47883;BME280;37739;50.350;7.578;2022-09-29T13:54:35;98440.88;;;16.94;49.28
47883;BME280;37739;50.350;7.578;2022-09-29T14:02:38;98445.97;;;17.00;46.86
47883;BME280;37739;50.350;7.578;2022-09-29T14:13:13;98445.63;;;16.38;50.07
47883;BME280;37739;50.350;7.578;2022-09-29T14:29:41;98460.81;;;15.56;54.08
47883;BME280;37739;50.350;7.578;2022-09-29T14:32:17;98471.19;;;15.40;55.09
47883;BME280;37739;50.350;7.578;2022-09-29T14:34:46;98476.41;;;15.34;55.68
47883;BME280;37739;50.350;7.578;2022-09-29T14:37:19;98475.50;;;15.34;56.04
47883;BME280;37739;50.350;7.578;2022-09-29T14:39:50;98485.03;;;15.28;54.69
47883;BME280;37739;50.350;7.578;2022-09-29T14:42:37;98486.78;;;15.17;54.84
47883;BME280;37739;50.350;7.578;2022-09-29T14:45:06;98486.75;;;15.23;54.60
47883;BME280;37739;50.350;7.578;2022-09-29T14:48:05;98491.94;;;15.12;52.69
47883;BME280;37739;50.350;7.578;2022-09-29T14:51:13;98501.44;;;14.95;53.13
47883;BME280;37739;50.350;7.578;2022-09-29T14:59:22;98497.16;;;14.91;53.28
47883;BME280;37739;50.350;7.578;2022-09-29T15:04:36;98511.81;;;14.60;54.25
47883;BME280;37739;50.350;7.578;2022-09-29T15:07:03;98501.47;;;14.64;54.54
47883;BME280;37739;50.350;7.578;2022-09-29T15:09:35;98500.56;;;14.54;54.94
47883;BME280;37739;50.350;7.578;2022-09-29T15:12:11;98504.06;;;14.69;55.79
47883;BME280;37739;50.350;7.578;2022-09-29T15:14:39;98508.38;;;14.76;56.04
47883;BME280;37739;50.350;7.578;2022-09-29T15:20:04;98506.63;;;14.81;56.52
47883;BME280;37739;50.350;7.578;2022-09-29T15:25:35;98504.94;;;14.72;56.88
47883;BME280;37739;50.350;7.578;2022-09-29T15:28:05;98504.06;;;14.61;57.45
47883;BME280;37739;50.350;7.578;2022-09-29T15:30:33;98497.16;;;14.49;57.96
47883;BME280;37739;50.350;7.578;2022-09-29T15:33:30;98509.19;;;14.50;58.55
47883;BME280;37739;50.350;7.578;2022-09-29T15:36:16;98502.31;;;14.54;58.30
47883;BME280;37739;50.350;7.578;2022-09-29T15:38:42;98504.03;;;14.52;58.06
47883;BME280;37739;50.350;7.578;2022-09-29T15:43:58;98511.78;;;14.53;59.09
47883;BME280;37739;50.350;7.578;2022-09-29T15:49:13;98516.84;;;14.01;60.49
47883;BME280;37739;50.350;7.578;2022-09-29T15:51:41;98521.16;;;14.07;60.46
47883;BME280;37739;50.350;7.578;2022-09-29T15:54:11;98522.03;;;14.21;60.57
47883;BME280;37739;50.350;7.578;2022-09-29T15:56:37;98525.44;;;14.05;61.22
47883;BME280;37739;50.350;7.578;2022-09-29T15:59:46;98531.41;;;13.88;60.90
47883;BME280;37739;50.350;7.578;2022-09-29T16:04:53;98531.47;;;14.04;60.86
47883;BME280;37739;50.350;7.578;2022-09-29T16:07:29;98539.22;;;14.13;60.61
47883;BME280;37739;50.350;7.578;2022-09-29T16:10:15;98540.94;;;14.08;60.90
47883;BME280;37739;50.350;7.578;2022-09-29T16:12:52;98542.66;;;14.09;60.53
47883;BME280;37739;50.350;7.578;2022-09-29T16:15:30;98546.94;;;14.05;60.23
47883;BME280;37739;50.350;7.578;2022-09-29T16:18:08;98555.53;;;14.00;60.04
47883;BME280;37739;50.350;7.578;2022-09-29T16:20:38;98563.25;;;13.97;60.51
47883;BME280;37739;50.350;7.578;2022-09-29T16:23:33;98570.16;;;13.99;60.07
47883;BME280;37739;50.350;7.578;2022-09-29T16:26:40;98575.19;;;13.78;60.58
47883;BME280;37739;50.350;7.578;2022-09-29T16:31:50;98583.75;;;13.72;60.73
47883;BME280;37739;50.350;7.578;2022-09-29T16:36:54;98584.59;;;13.63;61.43
47883;BME280;37739;50.350;7.578;2022-09-29T16:39:25;98587.94;;;13.48;61.45